sensor_id;sensor_type;location;lat;lon;timestamp;P1;durP1;ratioP1;P2;durP2;ratioP2
12042;SDS011;6082;49.306;12.862;2023-04-30T00:00:13;7.53;;;5.23;;
12042;SDS011;6082;49.306;12.862;2023-04-30T00:02:39;7.17;;;5.03;;
12042;SDS011;6082;49.306;12.862;2023-04-30T00:05:05;6.43;;;4.70;;
12042;SDS011;6082;49.306;12.862;2023-04-30T00:07:31;8.73;;;5.40;;
12042;SDS011;6082;49.306;12.862;2023-04-30T00:09:57;6.87;;;5.13;;
12042;SDS011;6082;49.306;12.862;2023-04-30T00:12:23;7.27;;;5.17;;
12042;SDS011;6082;49.306;12.862;2023-04-30T00:14:50;6.00;;;4.37;;
12042;SDS011;6082;49.306;12.862;2023-04-30T00:17:16;6.23;;;4.50;;
12042;SDS011;6082;49.306;12.862;2023-04-30T00:19:42;7.67;;;5.20;;
12042;SDS011;6082;49.306;12.862;2023-04-30T00:22:08;8.63;;;5.27;;
12042;SDS011;6082;49.306;12.862;2023-04-30T00:24:34;7.73;;;5.20;;
12042;SDS011;6082;49.306;12.862;2023-04-30T00:27:00;7.17;;;5.30;;
12042;SDS011;6082;49.306;12.862;2023-04-30T00:29:26;7.10;;;5.20;;
12042;SDS011;6082;49.306;12.862;2023-04-30T00:31:52;7.17;;;5.40;;
12042;SDS011;6082;49.306;12.862;2023-04-30T00:34:18;6.60;;;4.43;;
12042;SDS011;6082;49.306;12.862;2023-04-30T00:36:44;7.00;;;4.77;;
12042;SDS011;6082;49.306;12.862;2023-04-30T00:39:10;8.10;;;5.33;;
12042;SDS011;6082;49.306;12.862;2023-04-30T00:41:36;8.20;;;5.33;;
12042;SDS011;6082;49.306;12.862;2023-04-30T00:44:03;9.03;;;6.10;;
12042;SDS011;6082;49.306;12.862;2023-04-30T00:46:30;7.70;;;4.70;;
12042;SDS011;6082;49.306;12.862;2023-04-30T00:48:56;7.07;;;5.00;;
12042;SDS011;6082;49.306;12.862;2023-04-30T00:51:24;6.67;;;4.77;;
12042;SDS011;6082;49.306;12.862;2023-04-30T00:53:51;7.60;;;5.17;;
12042;SDS011;6082;49.306;12.862;2023-04-30T00:56:17;7.40;;;5.00;;
12042;SDS011;6082;49.306;12.862;2023-04-30T00:58:44;6.80;;;5.00;;
12042;SDS011;6082;49.306;12.862;2023-04-30T01:01:10;7.00;;;4.90;;
12042;SDS011;6082;49.306;12.862;2023-04-30T01:03:36;7.13;;;4.57;;
12042;SDS011;6082;49.306;12.862;2023-04-30T01:06:03;6.60;;;4.77;;
12042;SDS011;6082;49.306;12.862;2023-04-30T01:08:29;7.77;;;4.90;;
12042;SDS011;6082;49.306;12.862;2023-04-30T01:13:28;8.83;;;5.20;;
12042;SDS011;6082;49.306;12.862;2023-04-30T01:18:47;9.27;;;5.50;;
12042;SDS011;6082;49.306;12.862;2023-04-30T01:21:14;8.03;;;5.50;;
12042;SDS011;6082;49.306;12.862;2023-04-30T01:23:46;7.67;;;4.87;;
12042;SDS011;6082;49.306;12.862;2023-04-30T01:27:06;7.57;;;4.90;;
12042;SDS011;6082;49.306;12.862;2023-04-30T01:28:59;7.63;;;4.87;;
12042;SDS011;6082;49.306;12.862;2023-04-30T01:31:28;8.80;;;5.33;;
12042;SDS011;6082;49.306;12.862;2023-04-30T01:33:55;6.60;;;4.77;;
12042;SDS011;6082;49.306;12.862;2023-04-30T01:46:28;8.27;;;5.57;;
12042;SDS011;6082;49.306;12.862;2023-04-30T01:51:57;9.20;;;5.67;;
12042;SDS011;6082;49.306;12.862;2023-04-30T01:54:31;8.60;;;5.50;;
12042;SDS011;6082;49.306;12.862;2023-04-30T01:57:11;7.50;;;5.43;;
12042;SDS011;6082;49.306;12.862;2023-04-30T01:59:38;8.57;;;5.60;;
12042;SDS011;6082;49.306;12.862;2023-04-30T02:02:05;8.03;;;5.37;;
12042;SDS011;6082;49.306;12.862;2023-04-30T02:04:31;8.83;;;5.60;;
12042;SDS011;6082;49.306;12.862;2023-04-30T02:06:58;9.27;;;5.63;;
12042;SDS011;6082;49.306;12.862;2023-04-30T02:09:24;8.03;;;5.77;;
12042;SDS011;6082;49.306;12.862;2023-04-30T02:11:50;9.73;;;5.90;;
12042;SDS011;6082;49.306;12.862;2023-04-30T02:14:16;7.27;;;5.37;;
12042;SDS011;6082;49.306;12.862;2023-04-30T02:16:42;7.47;;;4.90;;
12042;SDS011;6082;49.306;12.862;2023-04-30T02:19:08;9.93;;;6.00;;
12042;SDS011;6082;49.306;12.862;2023-04-30T02:21:35;10.57;;;6.60;;
12042;SDS011;6082;49.306;12.862;2023-04-30T02:24:01;5.77;;;5.03;;
12042;SDS011;6082;49.306;12.862;2023-04-30T02:26:27;8.10;;;5.90;;
12042;SDS011;6082;49.306;12.862;2023-04-30T02:28:53;8.93;;;5.60;;
12042;SDS011;6082;49.306;12.862;2023-04-30T02:31:20;8.43;;;5.50;;
12042;SDS011;6082;49.306;12.862;2023-04-30T02:33:46;7.43;;;5.30;;
12042;SDS011;6082;49.306;12.862;2023-04-30T02:36:12;9.30;;;6.10;;
12042;SDS011;6082;49.306;12.862;2023-04-30T02:38:38;9.83;;;6.03;;
12042;SDS011;6082;49.306;12.862;2023-04-30T02:41:04;8.80;;;6.23;;
12042;SDS011;6082;49.306;12.862;2023-04-30T02:43:30;8.83;;;5.60;;
12042;SDS011;6082;49.306;12.862;2023-04-30T02:45:56;6.90;;;5.30;;
12042;SDS011;6082;49.306;12.862;2023-04-30T02:48:22;8.87;;;5.63;;
12042;SDS011;6082;49.306;12.862;2023-04-30T02:50:48;8.43;;;5.50;;
12042;SDS011;6082;49.306;12.862;2023-04-30T02:53:14;8.87;;;5.27;;
12042;SDS011;6082;49.306;12.862;2023-04-30T02:55:40;8.13;;;5.60;;
12042;SDS011;6082;49.306;12.862;2023-04-30T02:58:06;8.07;;;5.57;;
12042;SDS011;6082;49.306;12.862;2023-04-30T03:00:32;7.13;;;5.60;;
12042;SDS011;6082;49.306;12.862;2023-04-30T03:02:58;11.93;;;6.80;;
12042;SDS011;6082;49.306;12.862;2023-04-30T03:05:25;8.73;;;6.43;;
12042;SDS011;6082;49.306;12.862;2023-04-30T03:07:51;11.60;;;6.87;;
12042;SDS011;6082;49.306;12.862;2023-04-30T03:10:17;9.53;;;6.30;;
12042;SDS011;6082;49.306;12.862;2023-04-30T03:12:43;9.90;;;6.40;;
12042;SDS011;6082;49.306;12.862;2023-04-30T03:15:09;9.17;;;6.20;;
12042;SDS011;6082;49.306;12.862;2023-04-30T03:17:35;10.17;;;5.87;;
12042;SDS011;6082;49.306;12.862;2023-04-30T03:20:01;11.60;;;6.53;;
12042;SDS011;6082;49.306;12.862;2023-04-30T03:22:27;9.43;;;6.03;;
12042;SDS011;6082;49.306;12.862;2023-04-30T03:24:53;8.37;;;5.83;;
12042;SDS011;6082;49.306;12.862;2023-04-30T03:27:20;12.50;;;6.60;;
12042;SDS011;6082;49.306;12.862;2023-04-30T03:29:46;9.13;;;6.27;;
12042;SDS011;6082;49.306;12.862;2023-04-30T03:32:12;9.60;;;6.33;;
12042;SDS011;6082;49.306;12.862;2023-04-30T03:34:38;9.90;;;6.30;;
12042;SDS011;6082;49.306;12.862;2023-04-30T03:37:05;7.47;;;5.67;;
12042;SDS011;6082;49.306;12.862;2023-04-30T03:39:31;7.77;;;5.70;;
12042;SDS011;6082;49.306;12.862;2023-04-30T03:41:57;8.93;;;5.87;;
12042;SDS011;6082;49.306;12.862;2023-04-30T03:44:23;10.07;;;6.20;;
12042;SDS011;6082;49.306;12.862;2023-04-30T03:46:49;8.77;;;6.00;;
12042;SDS011;6082;49.306;12.862;2023-04-30T03:49:15;11.17;;;6.67;;
12042;SDS011;6082;49.306;12.862;2023-04-30T03:51:41;8.60;;;5.97;;
12042;SDS011;6082;49.306;12.862;2023-04-30T03:54:07;8.57;;;6.30;;
12042;SDS011;6082;49.306;12.862;2023-04-30T03:56:34;8.90;;;6.30;;
12042;SDS011;6082;49.306;12.862;2023-04-30T03:59:04;11.20;;;7.13;;
12042;SDS011;6082;49.306;12.862;2023-04-30T04:01:30;9.70;;;6.13;;
12042;SDS011;6082;49.306;12.862;2023-04-30T04:03:56;10.53;;;6.83;;
12042;SDS011;6082;49.306;12.862;2023-04-30T04:06:23;9.73;;;6.50;;
12042;SDS011;6082;49.306;12.862;2023-04-30T04:08:49;12.93;;;7.20;;
12042;SDS011;6082;49.306;12.862;2023-04-30T04:11:15;13.50;;;7.43;;
12042;SDS011;6082;49.306;12.862;2023-04-30T04:13:41;11.23;;;7.57;;
12042;SDS011;6082;49.306;12.862;2023-04-30T04:16:07;11.87;;;8.13;;
12042;SDS011;6082;49.306;12.862;2023-04-30T04:18:33;13.83;;;7.57;;
12042;SDS011;6082;49.306;12.862;2023-04-30T04:21:00;11.07;;;6.57;;
12042;SDS011;6082;49.306;12.862;2023-04-30T04:23:26;11.20;;;7.50;;
12042;SDS011;6082;49.306;12.862;2023-04-30T04:25:52;11.27;;;7.23;;
12042;SDS011;6082;49.306;12.862;2023-04-30T04:28:18;10.80;;;7.13;;
12042;SDS011;6082;49.306;12.862;2023-04-30T04:30:45;10.83;;;7.00;;
12042;SDS011;6082;49.306;12.862;2023-04-30T04:33:11;11.03;;;7.30;;
12042;SDS011;6082;49.306;12.862;2023-04-30T04:35:37;9.67;;;6.77;;
12042;SDS011;6082;49.306;12.862;2023-04-30T04:38:03;10.80;;;6.87;;
12042;SDS011;6082;49.306;12.862;2023-04-30T04:40:29;10.57;;;7.37;;
12042;SDS011;6082;49.306;12.862;2023-04-30T04:42:55;10.50;;;6.53;;
12042;SDS011;6082;49.306;12.862;2023-04-30T04:45:22;10.43;;;7.13;;
12042;SDS011;6082;49.306;12.862;2023-04-30T04:47:48;9.03;;;6.57;;
12042;SDS011;6082;49.306;12.862;2023-04-30T04:50:14;11.53;;;8.00;;
12042;SDS011;6082;49.306;12.862;2023-04-30T04:52:41;12.90;;;7.63;;
12042;SDS011;6082;49.306;12.862;2023-04-30T04:55:07;11.43;;;8.00;;
12042;SDS011;6082;49.306;12.862;2023-04-30T04:57:33;13.67;;;7.50;;
12042;SDS011;6082;49.306;12.862;2023-04-30T05:00:00;12.53;;;8.40;;
12042;SDS011;6082;49.306;12.862;2023-04-30T05:02:26;12.77;;;8.00;;
12042;SDS011;6082;49.306;12.862;2023-04-30T05:04:52;11.87;;;8.37;;
12042;SDS011;6082;49.306;12.862;2023-04-30T05:07:18;12.87;;;8.60;;
12042;SDS011;6082;49.306;12.862;2023-04-30T05:09:44;12.87;;;8.47;;
12042;SDS011;6082;49.306;12.862;2023-04-30T05:12:11;14.60;;;8.67;;
12042;SDS011;6082;49.306;12.862;2023-04-30T05:14:37;13.20;;;8.63;;
12042;SDS011;6082;49.306;12.862;2023-04-30T05:17:03;13.20;;;8.60;;
12042;SDS011;6082;49.306;12.862;2023-04-30T05:19:29;16.13;;;9.07;;
12042;SDS011;6082;49.306;12.862;2023-04-30T05:21:56;13.33;;;8.60;;
12042;SDS011;6082;49.306;12.862;2023-04-30T05:24:22;18.43;;;9.90;;
12042;SDS011;6082;49.306;12.862;2023-04-30T05:26:48;13.60;;;9.50;;
12042;SDS011;6082;49.306;12.862;2023-04-30T05:29:14;13.97;;;8.90;;
12042;SDS011;6082;49.306;12.862;2023-04-30T05:31:40;13.70;;;8.73;;
12042;SDS011;6082;49.306;12.862;2023-04-30T05:34:06;14.83;;;9.03;;
12042;SDS011;6082;49.306;12.862;2023-04-30T05:36:33;15.40;;;8.60;;
12042;SDS011;6082;49.306;12.862;2023-04-30T05:38:59;14.03;;;9.00;;
12042;SDS011;6082;49.306;12.862;2023-04-30T05:41:25;17.70;;;10.47;;
12042;SDS011;6082;49.306;12.862;2023-04-30T05:43:51;19.90;;;11.00;;
12042;SDS011;6082;49.306;12.862;2023-04-30T05:46:17;16.13;;;9.87;;
12042;SDS011;6082;49.306;12.862;2023-04-30T05:48:43;14.40;;;9.50;;
12042;SDS011;6082;49.306;12.862;2023-04-30T05:51:09;17.10;;;10.13;;
12042;SDS011;6082;49.306;12.862;2023-04-30T05:53:35;16.77;;;9.60;;
12042;SDS011;6082;49.306;12.862;2023-04-30T05:56:01;15.37;;;10.67;;
12042;SDS011;6082;49.306;12.862;2023-04-30T05:58:28;13.33;;;9.23;;
12042;SDS011;6082;49.306;12.862;2023-04-30T06:00:54;16.63;;;10.10;;
12042;SDS011;6082;49.306;12.862;2023-04-30T06:03:20;17.47;;;10.90;;
12042;SDS011;6082;49.306;12.862;2023-04-30T06:05:47;16.67;;;10.03;;
12042;SDS011;6082;49.306;12.862;2023-04-30T06:08:13;17.93;;;10.73;;
12042;SDS011;6082;49.306;12.862;2023-04-30T06:10:42;17.30;;;10.23;;
12042;SDS011;6082;49.306;12.862;2023-04-30T06:13:08;16.20;;;10.20;;
12042;SDS011;6082;49.306;12.862;2023-04-30T06:15:35;16.00;;;10.90;;
12042;SDS011;6082;49.306;12.862;2023-04-30T06:18:01;14.53;;;9.10;;
12042;SDS011;6082;49.306;12.862;2023-04-30T06:20:27;17.10;;;11.13;;
12042;SDS011;6082;49.306;12.862;2023-04-30T06:22:54;15.07;;;9.60;;
12042;SDS011;6082;49.306;12.862;2023-04-30T06:25:20;15.90;;;10.47;;
12042;SDS011;6082;49.306;12.862;2023-04-30T06:27:46;16.27;;;9.83;;
12042;SDS011;6082;49.306;12.862;2023-04-30T06:30:12;17.13;;;10.87;;
12042;SDS011;6082;49.306;12.862;2023-04-30T06:32:38;18.80;;;10.93;;
12042;SDS011;6082;49.306;12.862;2023-04-30T06:35:05;16.77;;;10.10;;
12042;SDS011;6082;49.306;12.862;2023-04-30T06:37:37;19.20;;;11.03;;
12042;SDS011;6082;49.306;12.862;2023-04-30T06:40:04;16.50;;;10.13;;
12042;SDS011;6082;49.306;12.862;2023-04-30T06:42:31;15.77;;;9.80;;
12042;SDS011;6082;49.306;12.862;2023-04-30T06:45:02;18.93;;;10.87;;
12042;SDS011;6082;49.306;12.862;2023-04-30T06:47:29;15.47;;;10.23;;
12042;SDS011;6082;49.306;12.862;2023-04-30T06:50:00;16.17;;;10.27;;
12042;SDS011;6082;49.306;12.862;2023-04-30T06:52:26;14.13;;;9.67;;
12042;SDS011;6082;49.306;12.862;2023-04-30T06:54:53;16.10;;;9.80;;
12042;SDS011;6082;49.306;12.862;2023-04-30T06:57:19;14.23;;;9.10;;
12042;SDS011;6082;49.306;12.862;2023-04-30T06:59:45;14.33;;;9.70;;
12042;SDS011;6082;49.306;12.862;2023-04-30T07:02:11;16.47;;;10.20;;
12042;SDS011;6082;49.306;12.862;2023-04-30T07:04:37;15.00;;;10.17;;
12042;SDS011;6082;49.306;12.862;2023-04-30T07:07:04;18.77;;;10.60;;
12042;SDS011;6082;49.306;12.862;2023-04-30T07:09:30;17.30;;;10.77;;
12042;SDS011;6082;49.306;12.862;2023-04-30T07:11:56;15.97;;;10.80;;
12042;SDS011;6082;49.306;12.862;2023-04-30T07:14:25;16.03;;;10.07;;
12042;SDS011;6082;49.306;12.862;2023-04-30T07:16:52;14.37;;;9.57;;
12042;SDS011;6082;49.306;12.862;2023-04-30T07:19:18;14.53;;;10.00;;
12042;SDS011;6082;49.306;12.862;2023-04-30T07:21:44;16.00;;;9.87;;
12042;SDS011;6082;49.306;12.862;2023-04-30T07:24:10;15.23;;;9.63;;
12042;SDS011;6082;49.306;12.862;2023-04-30T07:26:36;17.23;;;10.70;;
12042;SDS011;6082;49.306;12.862;2023-04-30T07:29:03;15.47;;;9.90;;
12042;SDS011;6082;49.306;12.862;2023-04-30T07:31:29;15.33;;;9.83;;
12042;SDS011;6082;49.306;12.862;2023-04-30T07:33:55;18.07;;;10.20;;
12042;SDS011;6082;49.306;12.862;2023-04-30T07:36:21;16.73;;;10.57;;
12042;SDS011;6082;49.306;12.862;2023-04-30T07:38:47;17.27;;;10.17;;
12042;SDS011;6082;49.306;12.862;2023-04-30T07:41:13;16.60;;;10.17;;
12042;SDS011;6082;49.306;12.862;2023-04-30T07:43:39;15.17;;;9.97;;
12042;SDS011;6082;49.306;12.862;2023-04-30T07:46:05;15.13;;;10.67;;
12042;SDS011;6082;49.306;12.862;2023-04-30T07:48:31;14.83;;;9.93;;
12042;SDS011;6082;49.306;12.862;2023-04-30T07:50:57;13.57;;;10.07;;
12042;SDS011;6082;49.306;12.862;2023-04-30T07:53:23;14.03;;;10.00;;
12042;SDS011;6082;49.306;12.862;2023-04-30T07:55:49;15.37;;;10.07;;
12042;SDS011;6082;49.306;12.862;2023-04-30T07:58:16;15.23;;;9.40;;
12042;SDS011;6082;49.306;12.862;2023-04-30T08:00:42;16.20;;;10.50;;
12042;SDS011;6082;49.306;12.862;2023-04-30T08:03:08;18.10;;;9.70;;
12042;SDS011;6082;49.306;12.862;2023-04-30T08:05:35;16.20;;;10.00;;
12042;SDS011;6082;49.306;12.862;2023-04-30T08:08:01;14.83;;;9.37;;
12042;SDS011;6082;49.306;12.862;2023-04-30T08:10:28;17.00;;;10.00;;
12042;SDS011;6082;49.306;12.862;2023-04-30T08:12:54;15.57;;;10.00;;
12042;SDS011;6082;49.306;12.862;2023-04-30T08:15:20;14.27;;;9.23;;
12042;SDS011;6082;49.306;12.862;2023-04-30T08:17:48;14.07;;;9.53;;
12042;SDS011;6082;49.306;12.862;2023-04-30T08:20:14;15.27;;;9.50;;
12042;SDS011;6082;49.306;12.862;2023-04-30T08:22:41;16.27;;;9.57;;
12042;SDS011;6082;49.306;12.862;2023-04-30T08:25:09;13.03;;;8.83;;
12042;SDS011;6082;49.306;12.862;2023-04-30T08:27:36;13.33;;;9.23;;
12042;SDS011;6082;49.306;12.862;2023-04-30T08:30:02;14.00;;;8.97;;
12042;SDS011;6082;49.306;12.862;2023-04-30T08:32:28;13.63;;;9.23;;
12042;SDS011;6082;49.306;12.862;2023-04-30T08:34:55;13.20;;;9.47;;
12042;SDS011;6082;49.306;12.862;2023-04-30T08:37:21;13.43;;;8.97;;
12042;SDS011;6082;49.306;12.862;2023-04-30T08:39:47;11.37;;;8.70;;
12042;SDS011;6082;49.306;12.862;2023-04-30T08:42:13;13.40;;;8.47;;
12042;SDS011;6082;49.306;12.862;2023-04-30T08:44:40;11.60;;;8.23;;
12042;SDS011;6082;49.306;12.862;2023-04-30T08:47:09;10.97;;;7.67;;
12042;SDS011;6082;49.306;12.862;2023-04-30T08:49:39;13.03;;;8.47;;
12042;SDS011;6082;49.306;12.862;2023-04-30T08:52:05;12.97;;;8.20;;
12042;SDS011;6082;49.306;12.862;2023-04-30T08:54:31;11.83;;;8.57;;
12042;SDS011;6082;49.306;12.862;2023-04-30T08:56:58;9.73;;;7.03;;
12042;SDS011;6082;49.306;12.862;2023-04-30T08:59:24;11.63;;;6.30;;
12042;SDS011;6082;49.306;12.862;2023-04-30T09:01:50;7.90;;;6.43;;
12042;SDS011;6082;49.306;12.862;2023-04-30T09:04:16;10.23;;;7.10;;
12042;SDS011;6082;49.306;12.862;2023-04-30T09:06:42;12.87;;;6.80;;
12042;SDS011;6082;49.306;12.862;2023-04-30T09:09:10;8.33;;;5.87;;
12042;SDS011;6082;49.306;12.862;2023-04-30T09:11:36;10.00;;;5.50;;
12042;SDS011;6082;49.306;12.862;2023-04-30T09:14:02;8.63;;;6.07;;
12042;SDS011;6082;49.306;12.862;2023-04-30T09:16:29;9.83;;;6.20;;
12042;SDS011;6082;49.306;12.862;2023-04-30T09:19:09;7.93;;;4.97;;
12042;SDS011;6082;49.306;12.862;2023-04-30T09:21:35;8.00;;;5.17;;
12042;SDS011;6082;49.306;12.862;2023-04-30T09:24:02;8.43;;;5.97;;
12042;SDS011;6082;49.306;12.862;2023-04-30T09:26:33;6.80;;;4.53;;
12042;SDS011;6082;49.306;12.862;2023-04-30T09:28:59;6.60;;;4.40;;
12042;SDS011;6082;49.306;12.862;2023-04-30T09:31:31;6.60;;;4.33;;
12042;SDS011;6082;49.306;12.862;2023-04-30T09:33:57;5.63;;;4.80;;
12042;SDS011;6082;49.306;12.862;2023-04-30T09:36:24;7.10;;;5.13;;
12042;SDS011;6082;49.306;12.862;2023-04-30T09:38:52;7.37;;;4.60;;
12042;SDS011;6082;49.306;12.862;2023-04-30T09:41:22;8.80;;;4.70;;
12042;SDS011;6082;49.306;12.862;2023-04-30T09:43:48;6.83;;;4.40;;
12042;SDS011;6082;49.306;12.862;2023-04-30T09:46:17;7.03;;;4.73;;
12042;SDS011;6082;49.306;12.862;2023-04-30T09:48:43;4.33;;;3.43;;
12042;SDS011;6082;49.306;12.862;2023-04-30T09:51:10;7.20;;;3.83;;
12042;SDS011;6082;49.306;12.862;2023-04-30T09:53:36;6.27;;;3.83;;
12042;SDS011;6082;49.306;12.862;2023-04-30T09:56:05;6.30;;;4.00;;
12042;SDS011;6082;49.306;12.862;2023-04-30T09:58:35;4.90;;;3.70;;
12042;SDS011;6082;49.306;12.862;2023-04-30T10:01:03;6.40;;;4.20;;
12042;SDS011;6082;49.306;12.862;2023-04-30T10:03:32;6.33;;;4.03;;
12042;SDS011;6082;49.306;12.862;2023-04-30T10:05:58;9.97;;;4.97;;
12042;SDS011;6082;49.306;12.862;2023-04-30T10:08:58;5.90;;;4.17;;
12042;SDS011;6082;49.306;12.862;2023-04-30T10:11:18;6.13;;;4.57;;
12042;SDS011;6082;49.306;12.862;2023-04-30T10:16:17;6.33;;;3.83;;
12042;SDS011;6082;49.306;12.862;2023-04-30T10:18:45;5.63;;;4.30;;
12042;SDS011;6082;49.306;12.862;2023-04-30T10:21:19;5.23;;;3.80;;
12042;SDS011;6082;49.306;12.862;2023-04-30T10:23:46;5.73;;;4.20;;
12042;SDS011;6082;49.306;12.862;2023-04-30T10:26:13;5.03;;;4.30;;
12042;SDS011;6082;49.306;12.862;2023-04-30T10:28:41;5.27;;;3.87;;
12042;SDS011;6082;49.306;12.862;2023-04-30T10:31:07;5.23;;;3.77;;
12042;SDS011;6082;49.306;12.862;2023-04-30T10:33:53;4.37;;;3.40;;
12042;SDS011;6082;49.306;12.862;2023-04-30T10:38:59;4.47;;;3.37;;
12042;SDS011;6082;49.306;12.862;2023-04-30T10:41:26;4.33;;;3.60;;
12042;SDS011;6082;49.306;12.862;2023-04-30T10:43:56;5.00;;;3.30;;
12042;SDS011;6082;49.306;12.862;2023-04-30T10:46:25;4.23;;;3.33;;
12042;SDS011;6082;49.306;12.862;2023-04-30T10:48:53;5.83;;;3.43;;
12042;SDS011;6082;49.306;12.862;2023-04-30T10:51:20;4.77;;;3.77;;
12042;SDS011;6082;49.306;12.862;2023-04-30T10:53:48;3.60;;;3.03;;
12042;SDS011;6082;49.306;12.862;2023-04-30T10:56:36;3.63;;;3.07;;
12042;SDS011;6082;49.306;12.862;2023-04-30T10:59:02;3.80;;;3.13;;
12042;SDS011;6082;49.306;12.862;2023-04-30T11:01:28;3.83;;;2.90;;
12042;SDS011;6082;49.306;12.862;2023-04-30T11:04:08;4.37;;;3.50;;
12042;SDS011;6082;49.306;12.862;2023-04-30T11:09:19;3.00;;;2.50;;
12042;SDS011;6082;49.306;12.862;2023-04-30T11:11:45;4.60;;;3.13;;
12042;SDS011;6082;49.306;12.862;2023-04-30T11:14:19;3.93;;;2.40;;
12042;SDS011;6082;49.306;12.862;2023-04-30T11:16:48;3.57;;;2.90;;
12042;SDS011;6082;49.306;12.862;2023-04-30T11:19:15;3.90;;;3.00;;
12042;SDS011;6082;49.306;12.862;2023-04-30T11:27:11;2.50;;;2.13;;
12042;SDS011;6082;49.306;12.862;2023-04-30T11:29:37;3.10;;;2.40;;
12042;SDS011;6082;49.306;12.862;2023-04-30T11:32:04;3.87;;;2.80;;
12042;SDS011;6082;49.306;12.862;2023-04-30T11:34:30;4.37;;;2.67;;
12042;SDS011;6082;49.306;12.862;2023-04-30T11:36:57;2.70;;;2.20;;
12042;SDS011;6082;49.306;12.862;2023-04-30T11:39:25;3.37;;;2.33;;
12042;SDS011;6082;49.306;12.862;2023-04-30T11:41:53;3.27;;;2.00;;
12042;SDS011;6082;49.306;12.862;2023-04-30T11:44:26;3.07;;;2.50;;
12042;SDS011;6082;49.306;12.862;2023-04-30T11:46:52;4.10;;;2.23;;
12042;SDS011;6082;49.306;12.862;2023-04-30T11:49:22;2.73;;;2.10;;
12042;SDS011;6082;49.306;12.862;2023-04-30T11:51:49;2.93;;;2.53;;
12042;SDS011;6082;49.306;12.862;2023-04-30T11:54:15;2.40;;;2.03;;
12042;SDS011;6082;49.306;12.862;2023-04-30T11:56:46;2.90;;;2.20;;
12042;SDS011;6082;49.306;12.862;2023-04-30T11:59:15;2.77;;;2.20;;
12042;SDS011;6082;49.306;12.862;2023-04-30T12:01:42;3.30;;;2.07;;
12042;SDS011;6082;49.306;12.862;2023-04-30T12:04:08;3.87;;;2.47;;
12042;SDS011;6082;49.306;12.862;2023-04-30T12:06:35;3.37;;;2.40;;
12042;SDS011;6082;49.306;12.862;2023-04-30T12:09:04;2.43;;;2.00;;
12042;SDS011;6082;49.306;12.862;2023-04-30T12:11:34;3.20;;;2.60;;
12042;SDS011;6082;49.306;12.862;2023-04-30T12:14:05;2.70;;;2.17;;
12042;SDS011;6082;49.306;12.862;2023-04-30T12:16:44;3.40;;;2.30;;
12042;SDS011;6082;49.306;12.862;2023-04-30T12:19:13;2.30;;;2.10;;
12042;SDS011;6082;49.306;12.862;2023-04-30T12:21:40;2.20;;;1.90;;
12042;SDS011;6082;49.306;12.862;2023-04-30T12:24:09;2.70;;;2.30;;
12042;SDS011;6082;49.306;12.862;2023-04-30T12:26:36;2.97;;;2.33;;
12042;SDS011;6082;49.306;12.862;2023-04-30T12:29:07;2.30;;;2.00;;
12042;SDS011;6082;49.306;12.862;2023-04-30T12:31:35;2.27;;;1.90;;
12042;SDS011;6082;49.306;12.862;2023-04-30T12:34:04;2.93;;;1.70;;
12042;SDS011;6082;49.306;12.862;2023-04-30T12:36:31;2.10;;;1.90;;
12042;SDS011;6082;49.306;12.862;2023-04-30T12:39:01;2.50;;;2.00;;
12042;SDS011;6082;49.306;12.862;2023-04-30T12:41:28;2.43;;;2.10;;
12042;SDS011;6082;49.306;12.862;2023-04-30T12:46:39;2.10;;;1.70;;
12042;SDS011;6082;49.306;12.862;2023-04-30T12:49:06;1.97;;;1.70;;
12042;SDS011;6082;49.306;12.862;2023-04-30T12:51:35;2.63;;;2.10;;
12042;SDS011;6082;49.306;12.862;2023-04-30T12:54:04;1.97;;;1.77;;
12042;SDS011;6082;49.306;12.862;2023-04-30T12:56:30;2.87;;;1.83;;
12042;SDS011;6082;49.306;12.862;2023-04-30T12:58:56;2.47;;;1.97;;
12042;SDS011;6082;49.306;12.862;2023-04-30T13:01:22;2.23;;;2.00;;
12042;SDS011;6082;49.306;12.862;2023-04-30T13:03:50;2.57;;;2.33;;
12042;SDS011;6082;49.306;12.862;2023-04-30T13:06:16;2.83;;;1.90;;
12042;SDS011;6082;49.306;12.862;2023-04-30T13:08:43;2.17;;;1.73;;
12042;SDS011;6082;49.306;12.862;2023-04-30T13:11:09;2.30;;;1.83;;
12042;SDS011;6082;49.306;12.862;2023-04-30T13:13:35;2.03;;;1.70;;
12042;SDS011;6082;49.306;12.862;2023-04-30T13:16:01;2.87;;;2.17;;
12042;SDS011;6082;49.306;12.862;2023-04-30T13:18:30;2.40;;;2.20;;
12042;SDS011;6082;49.306;12.862;2023-04-30T13:20:56;2.27;;;2.03;;
12042;SDS011;6082;49.306;12.862;2023-04-30T13:23:22;2.73;;;2.10;;
12042;SDS011;6082;49.306;12.862;2023-04-30T13:25:52;2.27;;;2.00;;
12042;SDS011;6082;49.306;12.862;2023-04-30T13:28:18;1.83;;;1.70;;
12042;SDS011;6082;49.306;12.862;2023-04-30T13:30:47;3.97;;;1.93;;
12042;SDS011;6082;49.306;12.862;2023-04-30T13:33:13;2.40;;;1.90;;
12042;SDS011;6082;49.306;12.862;2023-04-30T13:35:39;1.70;;;1.60;;
12042;SDS011;6082;49.306;12.862;2023-04-30T13:38:06;2.47;;;1.63;;
12042;SDS011;6082;49.306;12.862;2023-04-30T13:40:32;2.90;;;1.70;;
12042;SDS011;6082;49.306;12.862;2023-04-30T13:42:58;1.77;;;1.67;;
12042;SDS011;6082;49.306;12.862;2023-04-30T13:45:24;1.67;;;1.57;;
12042;SDS011;6082;49.306;12.862;2023-04-30T13:47:50;2.40;;;2.10;;
12042;SDS011;6082;49.306;12.862;2023-04-30T13:50:16;2.33;;;1.53;;
12042;SDS011;6082;49.306;12.862;2023-04-30T13:52:42;1.50;;;1.40;;
12042;SDS011;6082;49.306;12.862;2023-04-30T13:55:08;1.90;;;1.57;;
12042;SDS011;6082;49.306;12.862;2023-04-30T13:57:34;1.83;;;1.50;;
12042;SDS011;6082;49.306;12.862;2023-04-30T14:00:01;2.50;;;1.63;;
12042;SDS011;6082;49.306;12.862;2023-04-30T14:02:28;2.37;;;1.60;;
12042;SDS011;6082;49.306;12.862;2023-04-30T14:04:54;1.70;;;1.60;;
12042;SDS011;6082;49.306;12.862;2023-04-30T14:07:20;2.10;;;1.87;;
12042;SDS011;6082;49.306;12.862;2023-04-30T14:09:47;1.87;;;1.53;;
12042;SDS011;6082;49.306;12.862;2023-04-30T14:12:14;1.50;;;1.40;;
12042;SDS011;6082;49.306;12.862;2023-04-30T14:14:40;2.57;;;1.70;;
12042;SDS011;6082;49.306;12.862;2023-04-30T14:17:06;2.13;;;1.50;;
12042;SDS011;6082;49.306;12.862;2023-04-30T14:19:32;2.90;;;1.90;;
12042;SDS011;6082;49.306;12.862;2023-04-30T14:21:59;1.90;;;1.80;;
12042;SDS011;6082;49.306;12.862;2023-04-30T14:24:25;2.90;;;2.20;;
12042;SDS011;6082;49.306;12.862;2023-04-30T14:26:51;2.00;;;1.73;;
12042;SDS011;6082;49.306;12.862;2023-04-30T14:29:18;2.27;;;1.90;;
12042;SDS011;6082;49.306;12.862;2023-04-30T14:31:45;3.17;;;2.03;;
12042;SDS011;6082;49.306;12.862;2023-04-30T14:34:11;2.10;;;1.77;;
12042;SDS011;6082;49.306;12.862;2023-04-30T14:36:37;2.27;;;1.90;;
12042;SDS011;6082;49.306;12.862;2023-04-30T14:39:03;2.20;;;1.90;;
12042;SDS011;6082;49.306;12.862;2023-04-30T14:41:36;1.80;;;1.70;;
12042;SDS011;6082;49.306;12.862;2023-04-30T14:44:02;1.97;;;1.60;;
12042;SDS011;6082;49.306;12.862;2023-04-30T14:46:28;1.50;;;1.40;;
12042;SDS011;6082;49.306;12.862;2023-04-30T14:48:55;1.60;;;1.50;;
12042;SDS011;6082;49.306;12.862;2023-04-30T14:51:21;2.00;;;1.80;;
12042;SDS011;6082;49.306;12.862;2023-04-30T14:53:47;2.63;;;1.90;;
12042;SDS011;6082;49.306;12.862;2023-04-30T14:56:13;3.17;;;1.80;;
12042;SDS011;6082;49.306;12.862;2023-04-30T14:58:40;1.97;;;1.73;;
12042;SDS011;6082;49.306;12.862;2023-04-30T15:01:06;2.40;;;1.80;;
12042;SDS011;6082;49.306;12.862;2023-04-30T15:03:32;1.70;;;1.60;;
12042;SDS011;6082;49.306;12.862;2023-04-30T15:05:58;3.30;;;1.70;;
12042;SDS011;6082;49.306;12.862;2023-04-30T15:08:25;1.70;;;1.57;;
12042;SDS011;6082;49.306;12.862;2023-04-30T15:10:51;2.47;;;1.50;;
12042;SDS011;6082;49.306;12.862;2023-04-30T15:13:17;1.90;;;1.70;;